sensor_id;sensor_type;location;lat;lon;timestamp;temperature;humidity
18073;DHT22;9161;47.348;9.648;2023-02-28T00:04:47;0.20;99.90
18073;DHT22;9161;47.348;9.648;2023-02-28T00:09:53;0.20;99.90
18073;DHT22;9161;47.348;9.648;2023-02-28T00:14:57;0.30;99.90
18073;DHT22;9161;47.348;9.648;2023-02-28T00:19:59;0.30;99.90
18073;DHT22;9161;47.348;9.648;2023-02-28T00:25:12;0.30;99.90
18073;DHT22;9161;47.348;9.648;2023-02-28T00:35:19;0.00;99.90
18073;DHT22;9161;47.348;9.648;2023-02-28T00:40:21;-0.20;99.90
18073;DHT22;9161;47.348;9.648;2023-02-28T00:45:25;-0.30;99.90
18073;DHT22;9161;47.348;9.648;2023-02-28T00:50:28;-0.40;99.90
18073;DHT22;9161;47.348;9.648;2023-02-28T00:55:30;-0.60;99.90
18073;DHT22;9161;47.348;9.648;2023-02-28T01:00:33;-0.70;99.90
18073;DHT22;9161;47.348;9.648;2023-02-28T01:05:35;-0.90;99.90
18073;DHT22;9161;47.348;9.648;2023-02-28T01:10:37;-1.00;99.90
18073;DHT22;9161;47.348;9.648;2023-02-28T01:15:43;-1.20;99.90
18073;DHT22;9161;47.348;9.648;2023-02-28T01:20:47;-1.20;99.90
18073;DHT22;9161;47.348;9.648;2023-02-28T01:25:49;-1.30;99.90
18073;DHT22;9161;47.348;9.648;2023-02-28T01:30:53;-1.40;99.90
18073;DHT22;9161;47.348;9.648;2023-02-28T01:35:58;-1.50;99.90
18073;DHT22;9161;47.348;9.648;2023-02-28T01:41:01;-1.50;99.90
18073;DHT22;9161;47.348;9.648;2023-02-28T01:46:05;-1.50;99.90
18073;DHT22;9161;47.348;9.648;2023-02-28T01:51:09;-1.50;99.90
18073;DHT22;9161;47.348;9.648;2023-02-28T01:56:14;-1.50;99.90
18073;DHT22;9161;47.348;9.648;2023-02-28T02:01:24;-1.60;99.90
18073;DHT22;9161;47.348;9.648;2023-02-28T02:06:33;-1.70;99.90
18073;DHT22;9161;47.348;9.648;2023-02-28T02:11:36;-1.70;99.90
18073;DHT22;9161;47.348;9.648;2023-02-28T02:16:51;-1.70;99.90
18073;DHT22;9161;47.348;9.648;2023-02-28T02:22:11;-1.70;99.90
18073;DHT22;9161;47.348;9.648;2023-02-28T02:27:25;-1.80;99.90
18073;DHT22;9161;47.348;9.648;2023-02-28T02:38:03;-1.90;99.90
18073;DHT22;9161;47.348;9.648;2023-02-28T02:43:15;-2.00;99.90
18073;DHT22;9161;47.348;9.648;2023-02-28T02:48:21;-2.10;99.90
18073;DHT22;9161;47.348;9.648;2023-02-28T02:53:30;-2.10;99.90
18073;DHT22;9161;47.348;9.648;2023-02-28T02:58:37;-2.20;99.90
18073;DHT22;9161;47.348;9.648;2023-02-28T03:03:43;-2.10;99.90
18073;DHT22;9161;47.348;9.648;2023-02-28T03:08:48;-2.00;99.90
18073;DHT22;9161;47.348;9.648;2023-02-28T03:14:17;-2.10;99.90
18073;DHT22;9161;47.348;9.648;2023-02-28T03:19:51;-1.90;99.90
18073;DHT22;9161;47.348;9.648;2023-02-28T03:25:00;-1.60;99.90
18073;DHT22;9161;47.348;9.648;2023-02-28T03:30:10;-1.60;99.90
18073;DHT22;9161;47.348;9.648;2023-02-28T03:35:18;-1.50;99.90
18073;DHT22;9161;47.348;9.648;2023-02-28T03:40:27;-1.50;99.90
18073;DHT22;9161;47.348;9.648;2023-02-28T03:45:35;-1.50;99.90
18073;DHT22;9161;47.348;9.648;2023-02-28T03:50:39;-1.50;99.90
18073;DHT22;9161;47.348;9.648;2023-02-28T03:55:45;-1.50;99.90
18073;DHT22;9161;47.348;9.648;2023-02-28T04:00:55;-1.50;99.90
18073;DHT22;9161;47.348;9.648;2023-02-28T04:05:59;-1.40;99.90
18073;DHT22;9161;47.348;9.648;2023-02-28T04:11:06;-1.40;99.90
18073;DHT22;9161;47.348;9.648;2023-02-28T04:16:10;-1.30;99.90
18073;DHT22;9161;47.348;9.648;2023-02-28T04:21:24;-1.30;99.90
18073;DHT22;9161;47.348;9.648;2023-02-28T04:26:30;-1.20;99.90
18073;DHT22;9161;47.348;9.648;2023-02-28T04:31:32;-1.20;99.90
18073;DHT22;9161;47.348;9.648;2023-02-28T04:36:35;-1.20;99.90
18073;DHT22;9161;47.348;9.648;2023-02-28T04:41:39;-1.20;99.90
18073;DHT22;9161;47.348;9.648;2023-02-28T04:46:41;-1.10;99.90
18073;DHT22;9161;47.348;9.648;2023-02-28T04:51:44;-1.10;99.90
18073;DHT22;9161;47.348;9.648;2023-02-28T04:56:47;-1.20;99.90
18073;DHT22;9161;47.348;9.648;2023-02-28T05:01:50;-1.20;99.90
18073;DHT22;9161;47.348;9.648;2023-02-28T05:06:53;-1.30;99.90
18073;DHT22;9161;47.348;9.648;2023-02-28T05:11:57;-1.30;99.90
18073;DHT22;9161;47.348;9.648;2023-02-28T05:16:59;-1.30;99.90
18073;DHT22;9161;47.348;9.648;2023-02-28T05:22:01;-1.30;99.90
18073;DHT22;9161;47.348;9.648;2023-02-28T05:27:07;-1.20;99.90
18073;DHT22;9161;47.348;9.648;2023-02-28T05:32:10;-1.20;99.90
18073;DHT22;9161;47.348;9.648;2023-02-28T05:37:13;-1.20;99.90
18073;DHT22;9161;47.348;9.648;2023-02-28T05:42:17;-1.20;99.90
18073;DHT22;9161;47.348;9.648;2023-02-28T05:47:19;-1.20;99.90
18073;DHT22;9161;47.348;9.648;2023-02-28T05:52:21;-1.20;99.90
18073;DHT22;9161;47.348;9.648;2023-02-28T05:57:25;-1.30;99.90
18073;DHT22;9161;47.348;9.648;2023-02-28T06:02:28;-1.40;99.90
18073;DHT22;9161;47.348;9.648;2023-02-28T06:07:30;-1.60;99.90
18073;DHT22;9161;47.348;9.648;2023-02-28T06:12:33;-1.60;99.90
18073;DHT22;9161;47.348;9.648;2023-02-28T06:17:35;-1.70;99.90
18073;DHT22;9161;47.348;9.648;2023-02-28T06:22:37;-1.80;99.90
18073;DHT22;9161;47.348;9.648;2023-02-28T06:27:40;-1.80;99.90
18073;DHT22;9161;47.348;9.648;2023-02-28T06:32:44;-1.90;99.90
18073;DHT22;9161;47.348;9.648;2023-02-28T06:37:46;-1.90;99.90
18073;DHT22;9161;47.348;9.648;2023-02-28T06:42:50;-1.80;99.90
18073;DHT22;9161;47.348;9.648;2023-02-28T06:47:52;-1.70;99.90
18073;DHT22;9161;47.348;9.648;2023-02-28T06:52:54;-1.50;99.90
18073;DHT22;9161;47.348;9.648;2023-02-28T06:57:58;-1.30;99.90
18073;DHT22;9161;47.348;9.648;2023-02-28T07:03:01;-1.10;99.90
18073;DHT22;9161;47.348;9.648;2023-02-28T07:08:04;-0.90;99.90
18073;DHT22;9161;47.348;9.648;2023-02-28T07:13:09;-0.70;99.90
18073;DHT22;9161;47.348;9.648;2023-02-28T07:18:11;-0.40;99.90
18073;DHT22;9161;47.348;9.648;2023-02-28T07:23:13;-0.20;99.90
18073;DHT22;9161;47.348;9.648;2023-02-28T07:28:17;0.00;99.90
18073;DHT22;9161;47.348;9.648;2023-02-28T07:33:19;0.00;99.90
18073;DHT22;9161;47.348;9.648;2023-02-28T07:38:21;0.10;99.90
18073;DHT22;9161;47.348;9.648;2023-02-28T07:43:25;0.30;99.90
18073;DHT22;9161;47.348;9.648;2023-02-28T07:48:27;0.20;99.90
18073;DHT22;9161;47.348;9.648;2023-02-28T07:53:30;0.30;99.90
18073;DHT22;9161;47.348;9.648;2023-02-28T07:58:36;0.40;99.90
18073;DHT22;9161;47.348;9.648;2023-02-28T08:03:39;0.50;99.90
18073;DHT22;9161;47.348;9.648;2023-02-28T08:08:42;0.70;99.90
18073;DHT22;9161;47.348;9.648;2023-02-28T08:13:46;0.90;99.90
18073;DHT22;9161;47.348;9.648;2023-02-28T08:18:49;1.10;99.90
18073;DHT22;9161;47.348;9.648;2023-02-28T08:23:52;1.30;99.90
18073;DHT22;9161;47.348;9.648;2023-02-28T08:28:55;1.40;99.90
18073;DHT22;9161;47.348;9.648;2023-02-28T08:34:04;1.50;99.90
18073;DHT22;9161;47.348;9.648;2023-02-28T08:39:06;1.70;99.90
18073;DHT22;9161;47.348;9.648;2023-02-28T08:44:11;2.00;99.90
18073;DHT22;9161;47.348;9.648;2023-02-28T08:49:13;2.00;99.90
18073;DHT22;9161;47.348;9.648;2023-02-28T08:54:16;2.10;99.90
18073;DHT22;9161;47.348;9.648;2023-02-28T08:59:21;2.30;99.90
18073;DHT22;9161;47.348;9.648;2023-02-28T09:04:24;2.50;99.90
18073;DHT22;9161;47.348;9.648;2023-02-28T09:09:26;2.70;99.90
18073;DHT22;9161;47.348;9.648;2023-02-28T09:14:30;2.80;99.90
18073;DHT22;9161;47.348;9.648;2023-02-28T09:19:32;3.10;99.90
18073;DHT22;9161;47.348;9.648;2023-02-28T09:24:35;3.20;99.90
18073;DHT22;9161;47.348;9.648;2023-02-28T09:29:39;3.20;99.90
18073;DHT22;9161;47.348;9.648;2023-02-28T09:34:41;3.60;99.90
18073;DHT22;9161;47.348;9.648;2023-02-28T09:39:44;3.90;99.90
18073;DHT22;9161;47.348;9.648;2023-02-28T09:44:47;3.90;99.90
18073;DHT22;9161;47.348;9.648;2023-02-28T09:49:50;4.10;99.90
18073;DHT22;9161;47.348;9.648;2023-02-28T09:54:53;4.00;99.90
18073;DHT22;9161;47.348;9.648;2023-02-28T10:00:05;4.50;99.90
18073;DHT22;9161;47.348;9.648;2023-02-28T10:05:13;4.90;99.90
18073;DHT22;9161;47.348;9.648;2023-02-28T10:10:22;5.80;99.90
18073;DHT22;9161;47.348;9.648;2023-02-28T10:15:30;6.40;99.90
18073;DHT22;9161;47.348;9.648;2023-02-28T10:20:37;7.20;99.90
18073;DHT22;9161;47.348;9.648;2023-02-28T10:25:40;8.60;99.90
18073;DHT22;9161;47.348;9.648;2023-02-28T10:30:52;9.30;99.90
18073;DHT22;9161;47.348;9.648;2023-02-28T10:35:55;9.50;99.90
18073;DHT22;9161;47.348;9.648;2023-02-28T10:41:05;11.20;99.90
18073;DHT22;9161;47.348;9.648;2023-02-28T10:46:14;11.70;99.90
18073;DHT22;9161;47.348;9.648;2023-02-28T10:51:35;9.60;99.90
18073;DHT22;9161;47.348;9.648;2023-02-28T10:56:38;10.70;99.90
18073;DHT22;9161;47.348;9.648;2023-02-28T11:01:43;11.90;99.90
18073;DHT22;9161;47.348;9.648;2023-02-28T11:06:47;12.50;99.90
18073;DHT22;9161;47.348;9.648;2023-02-28T11:11:49;11.80;99.90
18073;DHT22;9161;47.348;9.648;2023-02-28T11:16:58;11.20;98.30
18073;DHT22;9161;47.348;9.648;2023-02-28T11:22:04;11.70;99.90
18073;DHT22;9161;47.348;9.648;2023-02-28T11:27:25;11.80;99.20
18073;DHT22;9161;47.348;9.648;2023-02-28T11:32:30;12.70;99.00
18073;DHT22;9161;47.348;9.648;2023-02-28T11:37:33;12.90;99.00
18073;DHT22;9161;47.348;9.648;2023-02-28T11:42:47;11.70;99.20
18073;DHT22;9161;47.348;9.648;2023-02-28T11:47:59;10.40;98.90
18073;DHT22;9161;47.348;9.648;2023-02-28T11:53:13;11.70;99.90
18073;DHT22;9161;47.348;9.648;2023-02-28T11:58:38;12.80;99.20
18073;DHT22;9161;47.348;9.648;2023-02-28T12:03:58;13.30;95.90
18073;DHT22;9161;47.348;9.648;2023-02-28T12:09:09;12.90;97.10
18073;DHT22;9161;47.348;9.648;2023-02-28T12:14:25;13.00;98.70
18073;DHT22;9161;47.348;9.648;2023-02-28T12:19:39;13.20;98.10
18073;DHT22;9161;47.348;9.648;2023-02-28T12:25:00;13.10;95.50
18073;DHT22;9161;47.348;9.648;2023-02-28T12:30:12;12.70;96.80
18073;DHT22;9161;47.348;9.648;2023-02-28T12:35:21;10.70;97.10
18073;DHT22;9161;47.348;9.648;2023-02-28T12:40:27;11.70;98.10
18073;DHT22;9161;47.348;9.648;2023-02-28T12:45:39;12.40;95.60
18073;DHT22;9161;47.348;9.648;2023-02-28T12:50:43;13.00;95.90
18073;DHT22;9161;47.348;9.648;2023-02-28T12:55:48;11.60;95.80
18073;DHT22;9161;47.348;9.648;2023-02-28T13:06:45;12.60;96.30
18073;DHT22;9161;47.348;9.648;2023-02-28T13:11:53;13.90;94.80
18073;DHT22;9161;47.348;9.648;2023-02-28T13:16:59;14.20;95.10
18073;DHT22;9161;47.348;9.648;2023-02-28T13:22:05;14.30;93.00
18073;DHT22;9161;47.348;9.648;2023-02-28T13:27:32;15.10;93.90
18073;DHT22;9161;47.348;9.648;2023-02-28T13:32:36;13.80;93.20
18073;DHT22;9161;47.348;9.648;2023-02-28T13:37:47;13.70;92.20
18073;DHT22;9161;47.348;9.648;2023-02-28T13:42:52;15.40;94.00
18073;DHT22;9161;47.348;9.648;2023-02-28T13:47:58;15.30;92.20
18073;DHT22;9161;47.348;9.648;2023-02-28T13:53:30;14.80;88.20
18073;DHT22;9161;47.348;9.648;2023-02-28T13:58:53;13.10;93.10
18073;DHT22;9161;47.348;9.648;2023-02-28T14:09:54;14.90;91.50
18073;DHT22;9161;47.348;9.648;2023-02-28T14:14:58;13.70;90.40
18073;DHT22;9161;47.348;9.648;2023-02-28T14:20:01;14.30;92.90
18073;DHT22;9161;47.348;9.648;2023-02-28T14:25:16;16.60;89.80
18073;DHT22;9161;47.348;9.648;2023-02-28T14:30:40;14.80;89.00
18073;DHT22;9161;47.348;9.648;2023-02-28T14:35:54;14.60;91.40
18073;DHT22;9161;47.348;9.648;2023-02-28T14:41:03;13.30;90.90
18073;DHT22;9161;47.348;9.648;2023-02-28T14:46:06;14.30;90.50
18073;DHT22;9161;47.348;9.648;2023-02-28T14:51:09;11.90;91.60
18073;DHT22;9161;47.348;9.648;2023-02-28T14:56:21;11.40;93.40
18073;DHT22;9161;47.348;9.648;2023-02-28T15:01:25;9.20;94.90
18073;DHT22;9161;47.348;9.648;2023-02-28T15:06:27;7.90;97.60
18073;DHT22;9161;47.348;9.648;2023-02-28T15:11:31;7.00;98.70
18073;DHT22;9161;47.348;9.648;2023-02-28T15:16:37;6.20;99.30
18073;DHT22;9161;47.348;9.648;2023-02-28T15:21:44;5.60;99.90
18073;DHT22;9161;47.348;9.648;2023-02-28T15:26:52;5.50;99.90
18073;DHT22;9161;47.348;9.648;2023-02-28T15:32:00;5.40;99.90
18073;DHT22;9161;47.348;9.648;2023-02-28T15:37:06;5.30;99.90
18073;DHT22;9161;47.348;9.648;2023-02-28T15:42:18;4.90;99.90
18073;DHT22;9161;47.348;9.648;2023-02-28T15:47:23;4.50;99.90
18073;DHT22;9161;47.348;9.648;2023-02-28T15:52:29;4.20;99.90
18073;DHT22;9161;47.348;9.648;2023-02-28T15:57:39;4.20;99.90
18073;DHT22;9161;47.348;9.648;2023-02-28T16:02:42;4.10;99.90
18073;DHT22;9161;47.348;9.648;2023-02-28T16:07:45;4.00;99.90
18073;DHT22;9161;47.348;9.648;2023-02-28T16:12:50;3.90;99.90
18073;DHT22;9161;47.348;9.648;2023-02-28T16:17:53;3.70;99.90
18073;DHT22;9161;47.348;9.648;2023-02-28T16:22:56;3.60;99.90
18073;DHT22;9161;47.348;9.648;2023-02-28T16:28:03;3.40;99.90
18073;DHT22;9161;47.348;9.648;2023-02-28T16:33:08;3.20;99.90
18073;DHT22;9161;47.348;9.648;2023-02-28T16:38:11;3.30;99.90
18073;DHT22;9161;47.348;9.648;2023-02-28T16:43:19;3.30;99.90
18073;DHT22;9161;47.348;9.648;2023-02-28T16:48:22;3.10;99.90
18073;DHT22;9161;47.348;9.648;2023-02-28T16:53:25;3.00;99.90
18073;DHT22;9161;47.348;9.648;2023-02-28T16:58:29;2.90;99.90
18073;DHT22;9161;47.348;9.648;2023-02-28T17:03:32;2.80;99.90
18073;DHT22;9161;47.348;9.648;2023-02-28T17:08:36;2.70;99.90
18073;DHT22;9161;47.348;9.648;2023-02-28T17:13:40;2.70;99.90
18073;DHT22;9161;47.348;9.648;2023-02-28T17:18:43;2.60;99.90
18073;DHT22;9161;47.348;9.648;2023-02-28T17:23:47;2.60;99.90
18073;DHT22;9161;47.348;9.648;2023-02-28T17:28:52;2.60;99.90
18073;DHT22;9161;47.348;9.648;2023-02-28T17:33:57;2.70;99.90
18073;DHT22;9161;47.348;9.648;2023-02-28T17:39:03;2.60;99.90
18073;DHT22;9161;47.348;9.648;2023-02-28T17:44:11;2.60;99.90
18073;DHT22;9161;47.348;9.648;2023-02-28T17:49:14;2.60;99.90
18073;DHT22;9161;47.348;9.648;2023-02-28T17:54:19;2.60;99.90
18073;DHT22;9161;47.348;9.648;2023-02-28T17:59:24;2.70;99.90
18073;DHT22;9161;47.348;9.648;2023-02-28T18:04:26;2.60;99.90
18073;DHT22;9161;47.348;9.648;2023-02-28T18:09:29;2.50;99.90
18073;DHT22;9161;47.348;9.648;2023-02-28T18:14:35;2.50;99.90
18073;DHT22;9161;47.348;9.648;2023-02-28T18:19:38;2.40;99.90
18073;DHT22;9161;47.348;9.648;2023-02-28T18:24:42;2.50;99.90
18073;DHT22;9161;47.348;9.648;2023-02-28T18:29:46;2.50;99.90
18073;DHT22;9161;47.348;9.648;2023-02-28T18:34:50;2.50;99.90
18073;DHT22;9161;47.348;9.648;2023-02-28T18:39:54;2.50;99.90
18073;DHT22;9161;47.348;9.648;2023-02-28T18:45:02;2.50;99.90
18073;DHT22;9161;47.348;9.648;2023-02-28T18:50:08;2.40;99.90
18073;DHT22;9161;47.348;9.648;2023-02-28T18:55:12;2.30;99.90
18073;DHT22;9161;47.348;9.648;2023-02-28T19:00:22;2.40;99.90
18073;DHT22;9161;47.348;9.648;2023-02-28T19:05:27;2.40;99.90
18073;DHT22;9161;47.348;9.648;2023-02-28T19:10:38;2.40;99.90
18073;DHT22;9161;47.348;9.648;2023-02-28T19:15:44;2.40;99.90
18073;DHT22;9161;47.348;9.648;2023-02-28T19:20:57;2.20;99.90
18073;DHT22;9161;47.348;9.648;2023-02-28T19:26:06;2.00;99.90
18073;DHT22;9161;47.348;9.648;2023-02-28T19:31:14;2.10;99.90
18073;DHT22;9161;47.348;9.648;2023-02-28T19:36:21;2.10;99.90
18073;DHT22;9161;47.348;9.648;2023-02-28T19:41:25;2.10;99.90
18073;DHT22;9161;47.348;9.648;2023-02-28T19:46:31;2.10;99.90
18073;DHT22;9161;47.348;9.648;2023-02-28T19:51:36;2.10;99.90
18073;DHT22;9161;47.348;9.648;2023-02-28T19:56:44;2.10;99.90
18073;DHT22;9161;47.348;9.648;2023-02-28T20:01:49;2.10;99.90
18073;DHT22;9161;47.348;9.648;2023-02-28T20:06:55;2.10;99.90
18073;DHT22;9161;47.348;9.648;2023-02-28T20:12:01;2.20;99.90
18073;DHT22;9161;47.348;9.648;2023-02-28T20:17:11;2.20;99.90
18073;DHT22;9161;47.348;9.648;2023-02-28T20:22:16;2.00;99.90
18073;DHT22;9161;47.348;9.648;2023-02-28T20:27:20;2.00;99.90
18073;DHT22;9161;47.348;9.648;2023-02-28T20:32:27;2.50;99.90
18073;DHT22;9161;47.348;9.648;2023-02-28T20:37:32;2.30;99.90
18073;DHT22;9161;47.348;9.648;2023-02-28T20:42:36;2.30;99.90
18073;DHT22;9161;47.348;9.648;2023-02-28T20:47:41;2.20;99.90
18073;DHT22;9161;47.348;9.648;2023-02-28T20:52:44;2.20;99.90
18073;DHT22;9161;47.348;9.648;2023-02-28T20:57:47;2.20;99.90
18073;DHT22;9161;47.348;9.648;2023-02-28T21:02:53;2.10;99.90
18073;DHT22;9161;47.348;9.648;2023-02-28T21:07:58;2.10;99.90
18073;DHT22;9161;47.348;9.648;2023-02-28T21:13:01;2.10;99.90
18073;DHT22;9161;47.348;9.648;2023-02-28T21:18:05;2.10;99.90
18073;DHT22;9161;47.348;9.648;2023-02-28T21:23:07;2.00;99.90
18073;DHT22;9161;47.348;9.648;2023-02-28T21:28:10;2.00;99.90
18073;DHT22;9161;47.348;9.648;2023-02-28T21:33:15;2.10;99.90
18073;DHT22;9161;47.348;9.648;2023-02-28T21:38:17;2.00;99.90
18073;DHT22;9161;47.348;9.648;2023-02-28T21:43:20;2.00;99.90
18073;DHT22;9161;47.348;9.648;2023-02-28T21:48:24;2.00;99.90
18073;DHT22;9161;47.348;9.648;2023-02-28T21:53:26;2.00;99.90
18073;DHT22;9161;47.348;9.648;2023-02-28T21:58:28;2.10;99.90
18073;DHT22;9161;47.348;9.648;2023-02-28T22:03:33;2.10;99.90
18073;DHT22;9161;47.348;9.648;2023-02-28T22:08:35;1.90;99.90
18073;DHT22;9161;47.348;9.648;2023-02-28T22:13:38;1.90;99.90
18073;DHT22;9161;47.348;9.648;2023-02-28T22:18:42;1.80;99.90
18073;DHT22;9161;47.348;9.648;2023-02-28T22:23:45;1.90;99.90
18073;DHT22;9161;47.348;9.648;2023-02-28T22:28:48;1.90;99.90
18073;DHT22;9161;47.348;9.648;2023-02-28T22:33:54;1.90;99.90
18073;DHT22;9161;47.348;9.648;2023-02-28T22:38:57;1.90;99.90
18073;DHT22;9161;47.348;9.648;2023-02-28T22:44:01;1.90;99.90
18073;DHT22;9161;47.348;9.648;2023-02-28T22:49:22;1.90;99.90
18073;DHT22;9161;47.348;9.648;2023-02-28T22:54:27;1.90;99.90
18073;DHT22;9161;47.348;9.648;2023-02-28T22:59:46;1.80;99.90
18073;DHT22;9161;47.348;9.648;2023-02-28T23:04:50;1.80;99.90
18073;DHT22;9161;47.348;9.648;2023-02-28T23:09:53;1.80;99.90
18073;DHT22;9161;47.348;9.648;2023-02-28T23:14:55;1.80;99.90
18073;DHT22;9161;47.348;9.648;2023-02-28T23:19:59;1.80;99.90
18073;DHT22;9161;47.348;9.648;2023-02-28T23:25:01;1.70;99.90
18073;DHT22;9161;47.348;9.648;2023-02-28T23:30:05;1.70;99.90
18073;DHT22;9161;47.348;9.648;2023-02-28T23:35:10;1.70;99.90
18073;DHT22;9161;47.348;9.648;2023-02-28T23:40:13;1.70;99.90
18073;DHT22;9161;47.348;9.648;2023-02-28T23:45:19;1.70;99.90
18073;DHT22;9161;47.348;9.648;2023-02-28T23:50:23;1.70;99.90
18073;DHT22;9161;47.348;9.648;2023-02-28T23:55:26;1.70;99.90
